Time;durP1;ratioP1;P1;durP2;ratioP2;P2;SDS_P1;SDS_P2;PMS_P1;PMS_P2;Temp;Humidity;BMP_temperature;BMP_pressure;BME280_temperature;BME280_humidity;BME280_pressure;Samples;Min_cycle;Max_cycle;Signal;HPM_P1;HPM_P2
2021/12/23 00:03:13;;;;;;;28.37;26.23;;;;;;;2.08;74.19;101378.69;10467178;28;20231;-80
2021/12/23 00:08:16;;;;;;;29.40;27.00;;;;;;;2.17;74.01;101435.53;10462595;28;20618;-80
2021/12/23 00:13:21;;;;;;;28.13;26.03;;;;;;;2.14;73.97;101454.06;10459753;28;20767;-80
2021/12/23 00:18:42;;;;;;;30.23;27.73;;;;;;;1.96;74.13;101384.31;10470696;28;20816;-80
2021/12/23 00:23:45;;;;;;;29.93;27.63;;;;;;;2.18;73.97;101417.97;10465139;28;20237;-81
2021/12/23 00:28:46;;;;;;;29.37;27.10;;;;;;;1.82;74.62;101332.00;10466385;28;20679;-80
2021/12/23 00:33:48;;;;;;;28.70;26.57;;;;;;;2.23;74.11;101395.84;10466040;28;20724;-79
2021/12/23 00:38:54;;;;;;;30.30;27.77;;;;;;;1.69;73.09;101312.16;10466201;28;20745;-80
2021/12/23 00:43:56;;;;;;;33.70;30.70;;;;;;;1.97;73.81;101338.59;10467508;28;20215;-80
2021/12/23 00:48:58;;;;;;;30.10;27.60;;;;;;;1.55;74.28;101236.22;10465407;28;20574;-80
2021/12/23 00:54:04;;;;;;;29.03;26.73;;;;;;;2.01;73.92;101300.72;10465834;28;20216;-80
2021/12/23 00:59:09;;;;;;;848.87;251.23;;;;;;;2.25;74.18;101332.56;10459934;28;20211;-79
2021/12/23 01:04:11;;;;;;;30.07;27.60;;;;;;;1.95;73.80;101291.22;10461896;28;20277;-79
2021/12/23 01:09:14;;;;;;;31.47;28.77;;;;;;;1.85;74.27;101288.94;10463275;28;20692;-80
2021/12/23 01:14:28;;;;;;;34.67;31.57;;;;;;;2.12;74.03;101337.31;10461018;28;20211;-80
2021/12/23 01:19:38;;;;;;;33.97;30.97;;;;;;;0.75;73.74;101109.47;10462173;28;20256;-80
2021/12/23 01:24:41;;;;;;;34.07;31.27;;;;;;;2.00;74.13;101314.81;10474019;28;20785;-80
2021/12/23 01:29:43;;;;;;;33.60;30.87;;;;;;;2.01;74.09;101315.69;10469576;28;20777;-80
2021/12/23 01:34:44;;;;;;;34.40;31.50;;;;;;;1.84;74.44;101282.78;10469353;28;20922;-80
2021/12/23 01:39:47;;;;;;;830.13;250.30;;;;;;;2.00;74.47;101325.38;10469385;28;20211;-80
2021/12/23 01:44:49;;;;;;;833.63;247.73;;;;;;;1.92;74.23;101325.56;10469411;28;20613;-80
2021/12/23 01:49:52;;;;;;;33.80;31.00;;;;;;;1.94;74.39;101312.34;10470045;28;20214;-80
2021/12/23 01:54:55;;;;;;;848.27;264.30;;;;;;;1.96;74.69;101318.47;10463397;28;20647;-80
2021/12/23 01:59:58;;;;;;;36.07;32.83;;;;;;;1.90;74.85;101303.69;10466772;28;20218;-80
2021/12/23 02:04:59;;;;;;;840.10;259.70;;;;;;;1.78;75.15;101292.63;10471041;28;20332;-79
2021/12/23 02:10:03;;;;;;;829.07;239.40;;;;;;;0.60;75.48;101129.13;10463409;28;20219;-79
2021/12/23 02:15:06;;;;;;;45.63;41.40;;;;;;;1.38;75.87;101230.56;10466816;28;20234;-79
2021/12/23 02:20:11;;;;;;;48.57;44.07;;;;;;;1.46;76.17;101224.16;10468595;28;20332;-80
2021/12/23 02:25:14;;;;;;;48.73;43.90;;;;;;;1.55;76.42;101246.75;10464869;28;20223;-80
2021/12/23 02:30:18;;;;;;;47.03;42.40;;;;;;;1.50;76.90;101233.69;10470443;28;20281;-80
2021/12/23 02:35:23;;;;;;;723.60;148.23;;;;;;;1.47;77.35;101238.19;10463200;28;20234;-80
2021/12/23 02:40:28;;;;;;;827.07;229.73;;;;;;;1.02;77.37;101163.13;10469150;28;20322;-80
2021/12/23 02:45:30;;;;;;;828.70;226.77;;;;;;;0.07;77.46;100997.44;10469702;28;20207;-79
2021/12/23 02:50:33;;;;;;;44.30;39.67;;;;;;;1.48;77.72;101213.59;10466610;28;20207;-80
2021/12/23 02:55:35;;;;;;;228.87;205.30;;;;;;;1.47;77.94;101228.53;10462584;28;20235;-80
2021/12/23 03:00:38;;;;;;;843.13;272.03;;;;;;;1.41;78.37;101186.56;10466250;28;20223;-79
2021/12/23 03:05:47;;;;;;;898.50;275.47;;;;;;;1.36;78.11;101199.03;10469629;28;20207;-80
2021/12/23 03:10:48;;;;;;;903.20;265.50;;;;;;;1.34;78.36;101190.31;10463868;28;20215;-79
2021/12/23 03:15:50;;;;;;;868.00;260.57;;;;;;;1.34;78.24;101201.69;10470840;28;20227;-79
2021/12/23 03:20:53;;;;;;;865.83;241.67;;;;;;;1.20;78.42;101169.63;10473557;28;20260;-80
2021/12/23 03:25:55;;;;;;;857.57;251.83;;;;;;;1.42;78.69;101167.25;10462322;28;20207;-80
2021/12/23 03:30:59;;;;;;;1999.90;999.90;;;;;;;1.34;78.86;101156.97;10467025;28;20219;-79
2021/12/23 03:36:02;;;;;;;1999.90;999.90;;;;;;;1.07;78.73;101124.38;10461642;28;20739;-80
2021/12/23 03:41:05;;;;;;;1999.90;999.90;;;;;;;1.35;78.88;101142.03;10462445;28;21572;-80
2021/12/23 03:46:06;;;;;;;1999.90;999.90;;;;;;;0.96;79.15;101043.19;10467369;28;20209;-80
2021/12/23 03:51:09;;;;;;;1999.90;999.90;;;;;;;1.42;79.30;101126.94;10466786;28;20225;-80
2021/12/23 03:56:11;;;;;;;1999.90;999.90;;;;;;;1.34;79.24;101124.53;10463105;28;20222;-80
2021/12/23 04:01:14;;;;;;;1999.90;999.90;;;;;;;1.36;79.08;101152.50;10459613;28;20219;-79
2021/12/23 04:06:17;;;;;;;1999.90;999.90;;;;;;;1.39;79.76;101135.75;10463798;28;20206;-78
2021/12/23 04:11:19;;;;;;;1938.37;938.57;;;;;;;1.38;79.24;101149.84;10457827;28;20669;-79
2021/12/23 04:16:20;;;;;;;1999.90;951.67;;;;;;;1.05;79.82;101094.63;10458741;28;20218;-79
2021/12/23 04:21:23;;;;;;;774.60;208.67;;;;;;;1.45;79.87;101140.88;10460923;28;20679;-79
2021/12/23 04:26:25;;;;;;;1716.93;731.50;;;;;;;0.78;79.68;101039.28;10454201;28;20583;-79
2021/12/23 04:31:27;;;;;;;765.97;137.27;;;;;;;1.48;80.05;101137.28;10462194;28;20230;-78
2021/12/23 04:36:30;;;;;;;781.73;146.13;;;;;;;1.34;80.37;101098.22;10463406;28;20254;-79
2021/12/23 04:41:32;;;;;;;803.40;226.47;;;;;;;1.39;80.29;101084.91;10462309;28;20631;-79
2021/12/23 04:46:34;;;;;;;847.20;310.83;;;;;;;1.55;80.53;101100.19;10455840;28;20261;-79
2021/12/23 04:51:37;;;;;;;832.23;308.27;;;;;;;1.52;80.48;101100.28;10460688;28;20707;-79
2021/12/23 04:56:38;;;;;;;802.43;243.03;;;;;;;0.54;80.52;100935.72;10469366;28;20726;-79
2021/12/23 05:01:40;;;;;;;752.67;160.40;;;;;;;1.52;80.55;101086.28;10471402;28;20605;-78
2021/12/23 05:06:43;;;;;;;1011.07;484.77;;;;;;;1.58;80.84;101095.75;10476258;28;20226;-79
2021/12/23 05:11:45;;;;;;;1999.90;999.90;;;;;;;1.47;81.20;101064.47;10472303;28;20218;-79
2021/12/23 05:16:46;;;;;;;1999.90;999.90;;;;;;;1.68;80.67;101063.84;10470865;28;20227;-79
2021/12/23 05:21:49;;;;;;;1848.30;999.90;;;;;;;1.76;80.75;101074.13;10473590;28;20234;-79
2021/12/23 05:26:51;;;;;;;1392.47;847.17;;;;;;;1.81;81.09;101063.44;10472000;28;20595;-79
2021/12/23 05:31:52;;;;;;;1227.97;673.90;;;;;;;1.81;80.75;101068.69;10468516;28;20234;-79
2021/12/23 05:36:55;;;;;;;1858.20;999.90;;;;;;;1.31;80.79;100978.13;10477793;28;20281;-79
2021/12/23 05:41:57;;;;;;;1267.50;730.27;;;;;;;1.53;80.68;101007.25;10478532;28;20469;-79
2021/12/23 05:46:59;;;;;;;1060.83;526.00;;;;;;;1.55;80.99;100988.81;10475137;28;20245;-79
2021/12/23 05:52:02;;;;;;;947.80;427.23;;;;;;;1.84;81.26;101023.84;10477056;28;20199;-79
2021/12/23 05:57:04;;;;;;;920.37;395.70;;;;;;;1.87;81.42;101047.47;10472607;28;20388;-79
2021/12/23 06:02:06;;;;;;;927.70;388.13;;;;;;;1.89;80.70;101020.16;10465391;28;20280;-79
2021/12/23 06:07:09;;;;;;;852.80;304.60;;;;;;;1.88;80.78;101009.66;10472781;28;20218;-79
2021/12/23 06:12:11;;;;;;;873.27;347.03;;;;;;;1.57;81.52;100957.19;10468625;28;20719;-79
2021/12/23 06:17:13;;;;;;;807.37;285.27;;;;;;;1.84;81.34;101002.78;10466816;28;20226;-79
2021/12/23 06:22:18;;;;;;;984.83;419.37;;;;;;;1.47;81.29;100970.63;10466545;28;20641;-80
2021/12/23 06:27:20;;;;;;;1999.90;999.90;;;;;;;1.89;81.62;101027.22;10467234;28;20202;-79
2021/12/23 06:32:22;;;;;;;1999.90;999.90;;;;;;;1.62;81.98;100981.56;10460828;28;20687;-79
2021/12/23 06:37:25;;;;;;;1999.90;999.90;;;;;;;1.29;81.61;100914.16;10462477;28;20607;-79
2021/12/23 06:42:27;;;;;;;1447.93;831.80;;;;;;;2.00;81.76;101001.38;10464086;28;20203;-79
2021/12/23 06:47:29;;;;;;;1999.90;999.90;;;;;;;1.97;81.60;100982.19;10464759;28;20212;-79
2021/12/23 06:52:33;;;;;;;1999.90;999.90;;;;;;;1.74;81.49;100939.03;10468477;28;20879;-80
2021/12/23 06:57:35;;;;;;;1999.90;999.90;;;;;;;2.05;82.34;100970.44;10463599;28;20562;-79
2021/12/23 07:02:39;;;;;;;1999.90;999.90;;;;;;;2.05;81.84;100980.13;10460826;28;20829;-79
2021/12/23 07:07:52;;;;;;;1999.90;999.90;;;;;;;2.09;82.12;100980.00;10465256;28;20570;-79
2021/12/23 07:12:55;;;;;;;1999.90;999.90;;;;;;;2.01;82.00;100944.28;10469916;28;20659;-79
2021/12/23 07:17:59;;;;;;;1999.90;999.90;;;;;;;2.18;82.08;100989.34;10459373;28;20223;-79
2021/12/23 07:23:03;;;;;;;1999.90;999.90;;;;;;;1.90;81.84;100928.84;10467709;28;20212;-79
2021/12/23 07:28:05;;;;;;;1999.90;999.90;;;;;;;2.27;82.27;101006.59;10461673;28;20215;-80
2021/12/23 07:33:07;;;;;;;1999.90;999.90;;;;;;;1.78;82.41;100901.16;10462841;28;20242;-79
2021/12/23 07:38:10;;;;;;;1999.90;999.90;;;;;;;2.37;81.74;100993.97;10467193;28;20687;-79
2021/12/23 07:43:31;;;;;;;139.50;93.67;;;;;;;2.26;81.69;100967.97;10465446;28;20261;-79
2021/12/23 07:48:33;;;;;;;199.27;97.50;;;;;;;2.34;82.00;100993.16;10463274;28;20209;-79
2021/12/23 07:53:36;;;;;;;146.07;97.80;;;;;;;2.34;82.07;100976.50;10456075;28;20203;-79
2021/12/23 07:58:38;;;;;;;133.43;86.63;;;;;;;2.37;81.90;100981.63;10460128;28;20315;-79
2021/12/23 08:03:40;;;;;;;221.43;94.93;;;;;;;2.13;82.06;100922.78;10455081;28;20300;-79
2021/12/23 08:08:44;;;;;;;173.87;91.83;;;;;;;2.26;81.83;100928.47;10461507;28;20459;-79
2021/12/23 08:13:46;;;;;;;140.60;84.80;;;;;;;2.42;82.45;100963.06;10460181;28;20203;-79
2021/12/23 08:18:47;;;;;;;186.57;92.93;;;;;;;2.44;82.51;100945.41;10461561;28;20227;-79
2021/12/23 08:23:50;;;;;;;197.00;96.33;;;;;;;2.45;82.39;100952.38;10461471;28;20242;-79
2021/12/23 08:28:52;;;;;;;157.47;85.30;;;;;;;1.90;82.21;100847.19;10467825;28;20213;-79
2021/12/23 08:33:54;;;;;;;147.43;85.80;;;;;;;2.13;81.68;100889.41;10455464;28;20239;-79
2021/12/23 08:38:57;;;;;;;132.23;82.47;;;;;;;2.47;81.97;100921.56;10458038;28;20585;-79
2021/12/23 08:43:58;;;;;;;137.30;84.30;;;;;;;2.51;82.62;100918.75;10456211;28;20216;-79
2021/12/23 08:49:03;;;;;;;126.80;84.47;;;;;;;2.39;82.74;100877.03;10455409;28;20206;-79
2021/12/23 08:54:06;;;;;;;224.53;83.17;;;;;;;2.64;82.88;100905.97;10464425;28;20210;-79
2021/12/23 08:59:07;;;;;;;1999.90;999.90;;;;;;;2.65;82.13;100896.28;10457865;28;20450;-79
2021/12/23 09:04:09;;;;;;;1999.90;999.90;;;;;;;2.50;83.08;100837.94;10459800;28;20214;-79
2021/12/23 09:09:12;;;;;;;1999.90;999.90;;;;;;;2.57;82.62;100832.47;10461435;28;20203;-79
2021/12/23 09:14:14;;;;;;;961.23;276.40;;;;;;;2.78;82.59;100852.69;10463410;28;20670;-79
2021/12/23 09:19:15;;;;;;;1001.30;276.50;;;;;;;2.78;82.17;100846.56;10457464;28;20222;-79
2021/12/23 09:24:19;;;;;;;570.00;185.53;;;;;;;1.64;82.03;100656.84;10460817;28;20215;-79
2021/12/23 09:34:37;;;;;;;152.47;84.33;;;;;;;2.78;82.05;100851.84;10462156;28;20262;-79
2021/12/23 09:39:40;;;;;;;129.83;82.33;;;;;;;2.74;82.37;100840.56;10462965;28;20220;-79
2021/12/23 09:44:42;;;;;;;97.57;78.00;;;;;;;2.76;81.97;100828.16;10474896;28;20644;-80
2021/12/23 09:49:45;;;;;;;117.10;77.73;;;;;;;2.79;82.11;100832.47;10468861;28;20211;-80
2021/12/23 09:54:49;;;;;;;140.20;81.97;;;;;;;2.53;82.58;100786.91;10463577;28;20223;-80
2021/12/23 09:59:51;;;;;;;136.90;84.83;;;;;;;2.02;81.97;100701.06;10469980;28;20231;-80
2021/12/23 10:04:53;;;;;;;136.37;91.63;;;;;;;2.62;82.00;100818.19;10472335;28;20780;-80
2021/12/23 10:10:03;;;;;;;192.20;102.47;;;;;;;2.81;82.40;100828.84;10466787;28;20747;-80
2021/12/23 10:31:10;;;;;;;261.17;90.13;;;;;;;2.89;82.35;100779.28;10462753;28;20222;-80
2021/12/23 10:41:33;;;;;;;395.23;140.13;;;;;;;3.15;82.99;100771.22;10470570;28;20599;-79
2021/12/23 10:46:39;;;;;;;534.63;180.00;;;;;;;3.24;83.06;100762.91;10469423;28;20214;-80
2021/12/23 10:51:55;;;;;;;582.47;189.97;;;;;;;3.27;82.59;100771.53;10465753;28;20272;-80
2021/12/23 11:02:21;;;;;;;690.80;205.97;;;;;;;3.28;82.41;100768.00;10465439;28;20231;-79
2021/12/23 11:07:27;;;;;;;828.00;245.27;;;;;;;3.33;83.07;100748.47;10458276;28;20695;-80
2021/12/23 11:29:30;;;;;;;1130.93;275.27;;;;;;;3.83;83.15;100709.25;10424151;28;20217;-81
2021/12/23 11:40:03;;;;;;;984.77;275.40;;;;;;;3.63;82.48;100593.09;10462465;28;20258;-81
2021/12/23 11:45:07;;;;;;;922.08;270.65;;;;;;;4.11;81.98;100647.19;10468252;28;20932;-82
2021/12/23 11:50:18;;;;;;;937.57;272.73;;;;;;;4.17;82.27;100648.69;10467072;28;20214;-82
2021/12/23 11:55:23;;;;;;;962.03;269.30;;;;;;;4.18;81.84;100645.09;10459366;28;20226;-82
2021/12/23 12:00:37;;;;;;;1124.93;270.30;;;;;;;4.25;82.51;100639.44;10464491;28;20249;-83
2021/12/23 12:05:40;;;;;;;992.73;277.30;;;;;;;3.96;81.73;100576.59;10469045;28;20206;-82
2021/12/23 12:10:45;;;;;;;950.13;275.70;;;;;;;4.26;81.97;100616.50;10469127;28;20563;-82
2021/12/23 12:15:53;;;;;;;161.88;95.50;;;;;;;3.42;81.52;100473.53;10471734;28;20527;-83
2021/12/23 12:20:56;;;;;;;992.50;276.50;;;;;;;3.50;81.50;100437.91;10481706;28;20235;-82
2021/12/23 12:26:01;;;;;;;1049.97;271.47;;;;;;;3.64;81.45;100446.94;10474766;28;20912;-82
2021/12/23 12:31:07;;;;;;;984.57;273.30;;;;;;;4.28;81.73;100549.41;10475266;28;20284;-82
2021/12/23 12:36:11;;;;;;;955.90;275.30;;;;;;;4.61;81.57;100582.16;10469889;28;20234;-82
2021/12/23 12:41:17;;;;;;;950.50;271.13;;;;;;;4.69;81.94;100598.50;10472929;28;20241;-82
2021/12/23 12:46:48;;;;;;;110.22;79.68;;;;;;;3.63;81.52;100424.94;10486948;28;20516;-83
2021/12/23 12:51:51;;;;;;;1022.90;276.43;;;;;;;4.84;81.81;100612.69;10483824;28;20281;-84
2021/12/23 12:56:57;;;;;;;1059.47;274.60;;;;;;;4.68;81.79;100546.50;10480056;28;20230;-82
2021/12/23 13:02:00;;;;;;;959.97;274.33;;;;;;;4.76;81.03;100560.19;10481920;28;20221;-81
2021/12/23 13:07:15;;;;;;;1094.27;276.07;;;;;;;4.43;81.08;100488.75;10479836;28;20536;-82
2021/12/23 13:12:31;;;;;;;1121.93;279.27;;;;;;;4.81;81.36;100539.66;10488954;28;20203;-83
2021/12/23 13:17:48;;;;;;;1045.17;274.63;;;;;;;4.99;81.58;100587.22;10492560;28;20235;-82
2021/12/23 13:22:56;;;;;;;1081.33;278.83;;;;;;;4.33;81.38;100469.00;10488710;28;20210;-83
2021/12/23 13:27:59;;;;;;;1020.20;281.67;;;;;;;5.07;81.79;100585.06;10487808;28;20647;-83
2021/12/23 13:33:05;;;;;;;961.87;279.80;;;;;;;4.71;81.99;100513.75;10493157;28;20232;-83
2021/12/23 13:38:07;;;;;;;993.23;276.43;;;;;;;4.81;82.05;100513.19;10496875;28;20222;-82
2021/12/23 13:43:09;;;;;;;948.17;275.00;;;;;;;5.03;81.64;100528.78;10491301;28;20204;-82
2021/12/23 13:48:12;;;;;;;968.17;279.83;;;;;;;5.06;81.90;100522.47;10491659;28;20221;-82
2021/12/23 13:53:16;;;;;;;954.33;276.57;;;;;;;5.25;81.55;100546.13;10490546;28;20218;-83
2021/12/23 13:58:25;;;;;;;957.40;280.87;;;;;;;5.21;81.40;100556.03;10492641;28;20772;-83
2021/12/23 14:03:28;;;;;;;1000.50;275.20;;;;;;;4.78;81.86;100494.81;10486352;28;20238;-82
2021/12/23 14:08:32;;;;;;;990.37;279.20;;;;;;;5.16;81.14;100547.50;10483478;28;20253;-82
2021/12/23 14:13:34;;;;;;;979.10;275.87;;;;;;;4.21;81.01;100402.63;10478994;28;20263;-83
2021/12/23 14:18:47;;;;;;;1021.67;279.60;;;;;;;5.06;81.42;100514.50;10486503;28;20231;-82
2021/12/23 14:23:49;;;;;;;931.03;275.47;;;;;;;3.45;81.27;100288.59;10485009;28;20214;-83
2021/12/23 14:28:53;;;;;;;964.90;280.60;;;;;;;5.15;81.30;100551.09;10489779;28;20660;-82
2021/12/23 14:33:58;;;;;;;947.73;274.40;;;;;;;5.11;81.07;100557.47;10479132;28;20238;-82
2021/12/23 14:39:01;;;;;;;952.70;277.40;;;;;;;5.13;81.45;100547.66;10477134;28;20226;-82
2021/12/23 14:44:06;;;;;;;942.13;272.70;;;;;;;4.96;82.16;100515.97;10480016;28;20211;-83
2021/12/23 14:49:27;;;;;;;945.43;274.03;;;;;;;3.83;81.76;100343.88;10481281;28;20207;-82
2021/12/23 14:54:29;;;;;;;975.67;276.77;;;;;;;4.62;82.04;100478.91;10482176;28;20214;-83
2021/12/23 14:59:31;;;;;;;934.97;276.60;;;;;;;4.95;82.52;100544.19;10486673;28;20229;-83
2021/12/23 15:04:34;;;;;;;1049.03;282.50;;;;;;;5.08;82.97;100573.53;10480775;28;20222;-82
2021/12/23 15:09:39;;;;;;;960.40;280.60;;;;;;;5.00;83.09;100558.03;10470124;28;20214;-82
2021/12/23 15:14:44;;;;;;;1050.10;278.17;;;;;;;5.10;83.43;100584.88;10489336;28;20203;-83
2021/12/23 15:19:51;;;;;;;1087.67;282.13;;;;;;;5.11;83.77;100572.53;10486796;28;20319;-82
2021/12/23 15:25:01;;;;;;;910.30;275.13;;;;;;;4.62;83.20;100472.78;10484863;28;20207;-83
2021/12/23 15:30:06;;;;;;;1121.27;277.23;;;;;;;4.15;84.16;100404.75;10485965;28;20285;-83
2021/12/23 15:35:13;;;;;;;934.87;275.83;;;;;;;5.12;84.00;100568.91;10487442;28;22253;-82
2021/12/23 15:40:20;;;;;;;992.07;272.97;;;;;;;4.91;84.66;100520.63;10473912;28;20315;-83
2021/12/23 15:45:22;;;;;;;1002.10;275.37;;;;;;;5.16;84.89;100557.22;10482630;28;20239;-83
2021/12/23 15:50:28;;;;;;;926.27;274.20;;;;;;;5.03;85.02;100527.94;10482310;28;20218;-82
2021/12/23 15:55:32;;;;;;;1064.13;278.60;;;;;;;5.22;84.98;100556.91;10479089;28;20204;-82
2021/12/23 16:00:33;;;;;;;967.40;277.30;;;;;;;5.22;85.72;100547.16;10486405;28;20230;-82
2021/12/23 16:11:10;;;;;;;962.47;294.63;;;;;;;5.14;86.12;100508.81;10487297;28;20267;-82
2021/12/23 16:16:12;;;;;;;915.47;276.80;;;;;;;4.88;85.84;100488.13;10482034;28;20617;-82
2021/12/23 16:21:16;;;;;;;955.03;279.13;;;;;;;4.61;85.84;100420.81;10486863;28;20247;-82
2021/12/23 16:26:19;;;;;;;1015.10;284.00;;;;;;;5.29;86.57;100517.69;10484943;28;20210;-83
2021/12/23 16:31:22;;;;;;;932.93;281.67;;;;;;;4.28;85.86;100355.59;10487061;28;20337;-83
2021/12/23 16:36:26;;;;;;;974.77;276.50;;;;;;;4.18;86.17;100328.81;10488253;28;20320;-81
2021/12/23 16:41:38;;;;;;;953.40;280.67;;;;;;;5.25;87.01;100494.06;10488901;28;20231;-81
2021/12/23 16:46:40;;;;;;;980.37;281.30;;;;;;;4.44;86.92;100358.25;10487941;28;20251;-82
2021/12/23 16:51:46;;;;;;;961.93;279.30;;;;;;;5.15;86.89;100471.66;10490049;28;20279;-82
2021/12/23 17:02:09;;;;;;;949.40;283.63;;;;;;;4.99;87.75;100424.03;10482473;28;20435;-82
2021/12/23 17:07:15;;;;;;;912.80;281.93;;;;;;;5.37;87.21;100511.06;10480568;28;20679;-82
2021/12/23 17:12:17;;;;;;;1182.97;332.97;;;;;;;5.09;87.52;100442.91;10494027;28;20223;-82
2021/12/23 17:17:18;;;;;;;1058.23;301.50;;;;;;;4.05;88.24;100274.88;10491138;28;20317;-82
2021/12/23 17:22:21;;;;;;;907.27;279.63;;;;;;;5.14;87.76;100439.97;10485977;28;20214;-82
2021/12/23 17:27:24;;;;;;;907.80;283.53;;;;;;;5.16;88.10;100432.81;10488081;28;20203;-82
2021/12/23 17:32:26;;;;;;;928.07;280.87;;;;;;;5.37;88.85;100458.09;10488165;28;20246;-83
2021/12/23 17:37:30;;;;;;;903.23;277.87;;;;;;;5.39;88.78;100447.41;10484211;28;20235;-82
2021/12/23 17:42:32;;;;;;;926.03;281.67;;;;;;;4.39;89.05;100275.69;10480469;28;20239;-82
2021/12/23 17:47:34;;;;;;;907.83;279.80;;;;;;;5.32;90.02;100424.88;10483588;28;20196;-82
2021/12/23 17:52:37;;;;;;;990.20;301.93;;;;;;;5.41;89.91;100429.66;10476094;28;20234;-82
2021/12/23 17:57:39;;;;;;;994.37;292.23;;;;;;;5.43;90.09;100427.75;10486102;28;20231;-82
2021/12/23 18:02:41;;;;;;;886.10;278.57;;;;;;;5.44;90.23;100421.50;10489785;28;20304;-82
2021/12/23 18:07:45;;;;;;;953.97;282.67;;;;;;;5.25;90.26;100382.88;10492467;28;20203;-82
2021/12/23 18:12:49;;;;;;;906.40;280.00;;;;;;;5.12;90.51;100376.53;10507493;28;20209;-82
2021/12/23 18:17:51;;;;;;;1065.03;312.87;;;;;;;5.47;90.39;100403.66;10496073;28;20216;-82
2021/12/23 18:22:54;;;;;;;945.57;283.67;;;;;;;5.44;91.04;100402.97;10494292;28;20211;-81
2021/12/23 18:27:56;;;;;;;943.70;278.63;;;;;;;5.30;91.28;100390.53;10494977;28;20192;-82
2021/12/23 18:33:02;;;;;;;179.75;126.50;;;;;;;5.49;91.28;100392.13;10492798;28;20451;-81
2021/12/23 18:38:10;;;;;;;115.97;105.30;;;;;;;4.93;91.69;100299.97;10498184;28;20257;-82
2021/12/23 18:43:12;;;;;;;129.00;115.50;;;;;;;5.53;91.48;100401.59;10497426;28;20211;-82
2021/12/23 18:48:14;;;;;;;280.13;195.20;;;;;;;5.09;91.70;100309.72;10497281;28;20199;-82
2021/12/23 18:53:18;;;;;;;766.93;228.70;;;;;;;5.11;91.95;100307.81;10499636;28;20207;-81
2021/12/23 18:58:20;;;;;;;1999.90;999.90;;;;;;;5.30;91.79;100348.16;10493996;28;20234;-82
2021/12/23 19:03:42;;;;;;;1999.90;999.90;;;;;;;5.25;91.93;100336.97;10494584;28;20218;-81
2021/12/23 19:08:49;;;;;;;945.67;275.40;;;;;;;5.61;92.61;100391.41;10494342;28;20211;-82
2021/12/23 19:13:52;;;;;;;939.73;278.13;;;;;;;5.07;92.87;100297.41;10495065;28;20217;-83
2021/12/23 19:18:53;;;;;;;949.17;272.27;;;;;;;5.11;92.82;100303.38;10488948;28;20236;-83
2021/12/23 19:23:57;;;;;;;974.97;261.70;;;;;;;5.44;93.68;100371.19;10493694;28;20198;-82
2021/12/23 19:28:59;;;;;;;174.03;74.73;;;;;;;5.43;93.63;100346.50;10490850;28;20257;-82
2021/12/23 19:34:06;;;;;;;218.67;78.03;;;;;;;5.50;94.28;100346.13;10494408;28;20245;-82
2021/12/23 19:39:12;;;;;;;474.90;144.33;;;;;;;4.82;94.65;100215.94;10491953;28;20229;-81
2021/12/23 19:44:14;;;;;;;1082.50;265.50;;;;;;;5.91;94.73;100390.53;10498523;28;20203;-82
2021/12/23 19:49:15;;;;;;;951.47;272.13;;;;;;;4.75;95.22;100171.44;10492027;28;20208;-82
2021/12/23 19:54:27;;;;;;;939.10;271.00;;;;;;;5.67;96.02;100316.88;10503174;28;20211;-82
2021/12/23 19:59:29;;;;;;;922.33;274.47;;;;;;;6.12;96.02;100378.69;10496756;28;20219;-83
2021/12/23 20:04:33;;;;;;;913.07;280.07;;;;;;;6.18;96.73;100380.13;10498413;28;20242;-82
2021/12/23 20:09:37;;;;;;;935.73;278.33;;;;;;;5.50;96.39;100242.84;10497554;28;20239;-82
2021/12/23 20:14:39;;;;;;;976.53;276.43;;;;;;;6.24;97.23;100347.91;10503129;28;20620;-82
2021/12/23 20:19:40;;;;;;;955.27;280.00;;;;;;;6.07;97.45;100335.69;10500723;28;20259;-82
2021/12/23 20:24:44;;;;;;;960.93;279.80;;;;;;;6.43;97.61;100342.31;10498558;28;20207;-82
2021/12/23 20:29:46;;;;;;;928.43;277.27;;;;;;;6.40;98.30;100337.19;10493385;28;20219;-84
2021/12/23 20:34:48;;;;;;;896.70;277.53;;;;;;;6.19;98.90;100291.66;10492967;28;20244;-82
2021/12/23 20:39:51;;;;;;;941.87;276.90;;;;;;;6.61;98.61;100346.47;10492187;28;20272;-82
2021/12/23 20:44:53;;;;;;;1100.27;284.50;;;;;;;5.52;99.05;100172.97;10500351;28;20213;-82
2021/12/23 20:50:01;;;;;;;947.23;284.87;;;;;;;6.18;99.90;100259.00;10503855;28;20204;-82
2021/12/23 20:55:12;;;;;;;1002.57;285.07;;;;;;;6.80;99.58;100347.97;10497819;28;20211;-83
2021/12/23 21:00:14;;;;;;;961.83;290.80;;;;;;;6.63;99.71;100304.78;10500968;28;20238;-83
2021/12/23 21:05:16;;;;;;;943.50;289.07;;;;;;;6.94;100.00;100331.13;10489537;28;20202;-83
2021/12/23 21:10:20;;;;;;;1077.80;293.27;;;;;;;6.83;99.49;100299.97;10485126;28;20798;-84
2021/12/23 21:15:26;;;;;;;961.07;290.80;;;;;;;6.87;100.00;100300.63;10493208;28;20230;-82
2021/12/23 21:20:28;;;;;;;894.87;286.90;;;;;;;6.96;100.00;100294.72;10486085;28;20573;-83
2021/12/23 21:25:32;;;;;;;875.77;291.67;;;;;;;7.22;100.00;100324.88;10483031;28;20211;-83
2021/12/23 21:30:34;;;;;;;885.63;292.60;;;;;;;6.94;100.00;100257.63;10481810;28;20234;-83
2021/12/23 21:35:36;;;;;;;872.90;288.00;;;;;;;7.33;100.00;100314.38;10489497;28;20235;-83
2021/12/23 21:40:40;;;;;;;910.37;291.87;;;;;;;6.23;100.00;100129.63;10496355;28;20253;-83
2021/12/23 21:45:41;;;;;;;915.43;286.70;;;;;;;7.44;100.00;100308.34;10494701;28;20208;-83
2021/12/23 21:50:44;;;;;;;960.73;288.03;;;;;;;7.37;100.00;100278.69;10495653;28;20199;-82
2021/12/23 21:55:51;;;;;;;1162.00;346.20;;;;;;;7.61;100.00;100293.94;10491674;28;20276;-82
2021/12/23 22:00:54;;;;;;;1044.43;283.70;;;;;;;7.67;100.00;100305.94;10490524;28;20231;-83
2021/12/23 22:05:56;;;;;;;1157.57;360.47;;;;;;;7.06;100.00;100199.38;10489974;28;20215;-83
2021/12/23 22:10:59;;;;;;;1047.80;343.70;;;;;;;7.61;100.00;100293.94;10491054;28;20220;-83
2021/12/23 22:16:04;;;;;;;715.20;268.63;;;;;;;7.88;100.00;100311.59;10497550;28;20207;-82
2021/12/23 22:21:06;;;;;;;684.13;262.43;;;;;;;7.96;100.00;100310.06;10492402;28;20322;-83
2021/12/23 22:26:09;;;;;;;944.07;351.13;;;;;;;7.02;100.00;100150.94;10489980;28;20210;-83
2021/12/23 22:31:12;;;;;;;868.27;313.47;;;;;;;8.09;100.00;100291.47;10497122;28;20227;-83
2021/12/23 22:36:13;;;;;;;1036.00;326.33;;;;;;;7.73;100.00;100239.91;10493243;28;20236;-83
2021/12/23 22:41:16;;;;;;;667.67;241.30;;;;;;;7.84;100.00;100240.97;10496906;28;20233;-82
2021/12/23 22:46:19;;;;;;;1680.53;777.67;;;;;;;8.09;100.00;100256.03;10490186;28;20212;-83
2021/12/23 22:51:21;;;;;;;744.70;375.50;;;;;;;8.30;100.00;100312.19;10495409;28;20200;-83
2021/12/23 22:56:25;;;;;;;781.67;394.00;;;;;;;8.40;100.00;100286.66;10490489;28;22039;-83
2021/12/23 23:01:27;;;;;;;1080.27;461.13;;;;;;;8.12;100.00;100227.41;10487402;28;20696;-84
2021/12/23 23:06:29;;;;;;;1018.67;551.97;;;;;;;8.42;100.00;100275.91;10492906;28;20217;-83
2021/12/23 23:11:36;;;;;;;1999.90;999.90;;;;;;;8.20;100.00;100221.56;10482934;28;20229;-83
2021/12/23 23:16:42;;;;;;;1592.10;789.77;;;;;;;8.14;100.00;100209.53;10485959;28;20217;-84
2021/12/23 23:21:46;;;;;;;1633.17;799.33;;;;;;;8.46;100.00;100250.78;10492715;28;21248;-84
2021/12/23 23:26:56;;;;;;;1048.63;561.37;;;;;;;8.35;100.00;100244.38;10483358;28;20210;-83
2021/12/23 23:37:32;;;;;;;1612.00;763.20;;;;;;;8.82;100.00;100273.03;10486391;28;20240;-83